Observations for LEEDS AND BRADFORD, United Kingdom (EGNM)

EGNM 201650Z 26012KT 220V300 9999 SCT032 17/09 Q1018
EGNM 201620Z 26014KT 220V290 9999 SCT031 17/09 Q1018
EGNM 201550Z 26015KT 230V300 9999 SCT031 17/09 Q1018
EGNM 201520Z 26014KT 220V310 9999 FEW030 17/09 Q1018
EGNM 201450Z 26015KT 230V300 9999 FEW026 17/10 Q1017
EGNM 201420Z 27016KT 240V310 9999 SCT021 17/11 Q1017
EGNM 201350Z 28017KT 9999 FEW018 SCT020 16/11 Q1017 
EGNM 201320Z 28013KT 240V310 9999 FEW015 SCT018 16/11 Q1017 
EGNM 201250Z 28013KT 9999 FEW014 BKN017 15/12 Q1017 
EGNM 201220Z 27014KT 240V310 9999 VCSH FEW009 BKN017 15/13 Q1016
EGNM 201150Z 26015KT 230V290 9999 8000W -RA SCT009 BKN012 15/14 Q1016   
EGNM 201120Z 26015KT 9999 -RA SCT010 BKN014 16/14 Q1016 
EGNM 201050Z 26014KT 4000 -RA SCT009 BKN012 15/14 Q1015 
EGNM 201020Z 25018G28KT 220V280 9999 VCSH FEW005 BKN013 16/14 Q1015 
EGNM 200950Z 25021G31KT 9000 3500W SHRA SCT010 BKN014 16/14 Q1015   
EGNM 200920Z 25019G29KT 9999 -SHRA FEW010 BKN016 18/15 Q1014
EGNM 200850Z 25018G28KT 210V270 9999 -SHRA FEW010 BKN020 17/15 Q1014
EGNM 200820Z 23016KT 200V270 8000 VCSH SCT010 SCT015 17/15 Q1014
EGNM 200750Z 23014G26KT 200V270 9999 -RA BKN014 17/14 Q1014 
EGNM 200720Z 22015KT 190V260 9999 -RA BKN014 18/14 Q1013
EGNM 200650Z 22017KT 9999 BKN013 17/14 Q1013
EGNM 200620Z 22015KT 190V250 9999 BKN016 17/14 Q1014
EGNM 200550Z 22018KT 190V250 9999 SCT015 SCT030 17/14 Q1014 
EGNM 200520Z 22018G31KT 190V260 9999 SCT015 17/13 Q1014 
EGNM 200450Z 22014KT 180V270 9999 SCT017 17/13 Q1014
EGNM 200420Z 23010KT 190V270 9999 SCT016 16/13 Q1014
EGNM 200350Z 22012KT 180V250 9999 SCT015 16/13 Q1014
EGNM 200320Z 22010KT 190V260 9999 SCT016 16/13 Q1015
EGNM 200250Z 22011KT 190V250 9999 BKN017 17/13 Q1015
EGNM 200220Z 22010KT 190V250 9999 BKN019 17/13 Q1016
EGNM 200150Z 23013KT 190V280 9999 FEW018 BKN022 17/14 Q1016 
EGNM 200120Z 24013KT 200V270 9999 SCT020 17/14 Q1016
EGNM 200050Z 24013KT 9999 SCT018 17/14 Q1016
EGNM 200020Z 23013KT 200V270 9999 FEW020 17/14 Q1017
EGNM 192350Z 23013KT 200V260 9999 SCT021 17/14 Q1017
EGNM 192320Z 23012KT 200V260 9999 FEW023 17/13 Q1017
EGNM 192250Z 23013KT 180V260 9999 SCT022 18/14 Q1017
EGNM 192220Z 23013KT 190V270 9999 FEW022 SCT027 18/14 Q1017 
EGNM 192150Z 23012KT 190V260 9999 FEW020 SCT026 18/14 Q1017 
EGNM 192120Z 23010KT 9999 SCT019 18/14 Q1018
EGNM 192050Z 23012KT 190V270 9999 SCT019 18/14 Q1018
EGNM 192020Z 21008KT 170V240 9999 FEW020 18/14 Q1018
EGNM 191950Z 23010KT 190V260 9999 FEW020 19/14 Q1018
EGNM 191920Z 22012KT 190V270 9999 FEW020 19/14 Q1018
EGNM 191850Z 22012KT 190V270 9999 SCT022 19/14 Q1018
EGNM 191820Z 22010KT 160V240 9999 SCT022 SCT028 20/14 Q1018 
EGNM 191750Z 23008KT 200V270 9999 BKN021 19/15 Q1018
EGNM 191720Z 24008KT 200V270 9999 BKN022 19/14 Q1018
EGNM 191650Z 25008KT 220V280 9999 BKN022 19/14 Q1018
EGNM 191620Z 25007KT 180V290 9999 BKN020 18/14 Q1019